Wesley A — WDE2433 — position and weather

sailwx.info

Track history (hours):
 
Tides and Currents Weather Stations Pressure Air Temp Water Temp Dewpoint Dewpoint Depression Visibility Wind Speed Wind Dir Waves Ship Positions

Wesley A

Owner: G & H Towing Company, Galveston, TX. More information available from US FCC via Universal Licensing System and Coast Guard Vessel Documentation Center.

Last reported at 2017-Oct-18 15:12 UTC. Time now 2017-Oct-18 20:28 UTC.
Position N 29°44' W 095°02'.

Length 30 m; draft 6.4 m.

Type: Tug. MMSI: 367325130.

Date/timePositionNaut miles runAvg speedWind from/ knotsBaromVisibWave heightAir tempDewpointWater temp
2017-Oct-18 15:12N 29°44' W 095°02'1 5.1
2017-Oct-18 15:00N 29°43' W 095°01'1 0.3
2017-Oct-18 12:59N 29°42' W 095°01'0 0.0
2017-Oct-18 12:26N 29°42' W 095°01'2 4.5
2017-Oct-18 12:00N 29°41' W 094°59'0 0.9
2017-Oct-18 11:30N 29°41' W 094°59'1 1.3
2017-Oct-18 10:52N 29°41' W 095°00'1 1.7
2017-Oct-18 10:30N 29°41' W 094°60'0 0.0
2017-Oct-18 09:54N 29°41' W 094°60'0 0.0
2017-Oct-18 09:30N 29°41' W 094°60'0 0.0
2017-Oct-18 09:00N 29°41' W 094°60'0 0.0
2017-Oct-18 08:30N 29°41' W 094°60'0 0.0
2017-Oct-18 08:00N 29°41' W 094°60'0 0.0
2017-Oct-18 07:24N 29°41' W 094°60'0 0.0
2017-Oct-18 07:00N 29°41' W 094°60'0 0.0
2017-Oct-18 06:30N 29°41' W 094°60'0 0.2
2017-Oct-18 06:00N 29°41' W 094°60'0 0.2
2017-Oct-18 05:29N 29°41' W 094°60'0 0.0
2017-Oct-18 04:59N 29°41' W 094°60'0 0.0
2017-Oct-18 04:30N 29°41' W 094°60'0 0.0
2017-Oct-18 03:59N 29°41' W 094°60'0 0.0
2017-Oct-18 03:26N 29°41' W 094°60'0 0.0
2017-Oct-18 02:59N 29°41' W 094°60'0 0.0
2017-Oct-18 02:29N 29°41' W 094°60'0 0.0
2017-Oct-18 01:59N 29°41' W 094°60'0 0.0
2017-Oct-18 01:29N 29°41' W 094°60'0 0.0
2017-Oct-18 00:59N 29°41' W 094°60'0 0.1
2017-Oct-18 00:30N 29°41' W 094°60'0 0.2
2017-Oct-18 00:00N 29°41' W 094°60'0 0.1
2017-Oct-17 23:28N 29°41' W 094°60'0 0.0
2017-Oct-17 23:00N 29°41' W 094°60'0 0.0
2017-Oct-17 22:30N 29°41' W 094°60'0 0.4
2017-Oct-17 22:00N 29°41' W 095°00'0 0.5
2017-Oct-17 21:11N 29°41' W 095°01'1 0.2
2017-Oct-17 17:01N 29°41' W 094°60'0 0.0
2017-Oct-17 16:34N 29°41' W 094°60'0 0.0
2017-Oct-17 16:22N 29°41' W 094°60'0 0.0
2017-Oct-17 15:55N 29°41' W 094°60'0 0.0
2017-Oct-17 15:04N 29°41' W 094°60'0 0.0
2017-Oct-17 14:55N 29°41' W 094°60'0 0.0
2017-Oct-17 14:28N 29°41' W 094°60'0 0.0
2017-Oct-17 13:22N 29°41' W 094°60'0 0.0
2017-Oct-17 12:04N 29°41' W 094°60'0 0.0
2017-Oct-17 12:00N 29°41' W 094°60'0 0.8
2017-Oct-17 11:27N 29°41' W 095°00'1 2.9
2017-Oct-17 10:58N 29°41' W 094°59'3 7.1
2017-Oct-17 10:29N 29°37' W 094°57'4 7.6
2017-Oct-17 10:01N 29°37' W 095°02'0 0.0
2017-Oct-17 09:20N 29°37' W 095°02'0 0.0
2017-Oct-17 08:59N 29°37' W 095°02'0 0.0
2017-Oct-17 08:23N 29°37' W 095°02'0 0.0
2017-Oct-17 07:59N 29°37' W 095°02'0 0.0
2017-Oct-17 07:23N 29°37' W 095°02'0 0.0
2017-Oct-17 06:53N 29°37' W 095°02'0 0.0
2017-Oct-17 06:23N 29°37' W 095°02'0 0.0
2017-Oct-17 05:59N 29°37' W 095°02'0 0.0
2017-Oct-17 05:29N 29°37' W 095°02'0 0.0
2017-Oct-17 04:53N 29°37' W 095°02'0 0.0
2017-Oct-17 04:26N 29°37' W 095°02'0 0.2
2017-Oct-17 04:00N 29°37' W 095°02'0 0.0
2017-Oct-17 03:30N 29°37' W 095°02'1 2.2
2017-Oct-17 03:00N 29°37' W 095°00'2 4.9
2017-Oct-17 02:30N 29°38' W 094°58'3 6.2
2017-Oct-17 02:01N 29°37' W 095°01'0 0.1
2017-Oct-17 01:28N 29°37' W 095°01'0 0.0
2017-Oct-17 00:58N 29°37' W 095°01'0 0.0
2017-Oct-17 00:28N 29°37' W 095°01'0 0.0
2017-Oct-16 23:58N 29°37' W 095°01'0 0.0
2017-Oct-16 23:28N 29°37' W 095°01'0 0.0
2017-Oct-16 22:58N 29°37' W 095°01'0 0.0
2017-Oct-16 22:28N 29°37' W 095°01'0 0.0
2017-Oct-16 21:58N 29°37' W 095°01'0 0.0
2017-Oct-16 21:28N 29°37' W 095°01'0 0.0
2017-Oct-16 20:58N 29°37' W 095°01'0 0.0
2017-Oct-16 20:28N 29°37' W 095°01'0 0.0
2017-Oct-16 19:58N 29°37' W 095°01'0 0.0
2017-Oct-16 19:28N 29°37' W 095°01'0 0.0
2017-Oct-16 18:58N 29°37' W 095°01'0 0.0
2017-Oct-16 18:28N 29°37' W 095°01'0 0.0
2017-Oct-16 17:58N 29°37' W 095°01'0 0.0
2017-Oct-16 17:28N 29°37' W 095°01'0 0.0
2017-Oct-16 16:58N 29°37' W 095°01'0 0.0
2017-Oct-16 16:28N 29°37' W 095°01'0 0.0
2017-Oct-16 15:58N 29°37' W 095°01'0 0.0
2017-Oct-16 15:28N 29°37' W 095°01'0 0.0
2017-Oct-16 14:58N 29°37' W 095°01'0 0.0
2017-Oct-16 14:28N 29°37' W 095°01'0 0.0
2017-Oct-16 13:28N 29°37' W 095°01'0 0.0
2017-Oct-16 12:58N 29°37' W 095°01'0 0.0
2017-Oct-16 12:28N 29°37' W 095°01'0 0.0
2017-Oct-16 11:58N 29°37' W 095°01'0 0.0
2017-Oct-16 11:28N 29°37' W 095°01'0 0.0
2017-Oct-16 10:58N 29°37' W 095°01'0 0.0
2017-Oct-16 10:28N 29°37' W 095°01'0 0.0
2017-Oct-16 09:58N 29°37' W 095°01'0 0.0
2017-Oct-16 09:28N 29°37' W 095°01'0 0.0
2017-Oct-16 08:55N 29°37' W 095°01'0 0.0
2017-Oct-16 08:28N 29°37' W 095°01'0 0.0
2017-Oct-16 07:58N 29°37' W 095°01'0 0.0
2017-Oct-16 07:28N 29°37' W 095°01'0 0.0
2017-Oct-16 06:58N 29°37' W 095°01'0 0.0
2017-Oct-16 06:28N 29°37' W 095°01'0 0.0
2017-Oct-16 05:58N 29°37' W 095°01'0 0.0
2017-Oct-16 05:28N 29°37' W 095°01'0 0.0
2017-Oct-16 04:58N 29°37' W 095°01'0 0.0
2017-Oct-16 04:28N 29°37' W 095°01'0 0.0
2017-Oct-16 03:58N 29°37' W 095°01'0 0.0
2017-Oct-16 03:28N 29°37' W 095°01'0 0.0
2017-Oct-16 02:58N 29°37' W 095°01'0 0.0
2017-Oct-16 02:28N 29°37' W 095°01'0 0.0
2017-Oct-16 01:55N 29°37' W 095°01'0 0.0
2017-Oct-16 01:28N 29°37' W 095°01'0 0.0
2017-Oct-16 00:58N 29°37' W 095°01'0 0.0
2017-Oct-16 00:28N 29°37' W 095°01'0 0.0
2017-Oct-15 23:58N 29°37' W 095°01'0 0.0
2017-Oct-15 23:28N 29°37' W 095°01'0 0.0
2017-Oct-15 22:58N 29°37' W 095°01'0 0.0
2017-Oct-15 22:28N 29°37' W 095°01'0 0.0
2017-Oct-15 21:58N 29°37' W 095°01'0 0.0
2017-Oct-15 21:28N 29°37' W 095°01'0 0.0
2017-Oct-15 20:58N 29°37' W 095°01'0 0.0
2017-Oct-15 20:28N 29°37' W 095°01'0 0.0
2017-Oct-15 19:58N 29°37' W 095°01'0 0.0
2017-Oct-15 19:28N 29°37' W 095°01'0 0.0
2017-Oct-15 18:59N 29°37' W 095°01'0 0.8
2017-Oct-15 18:25N 29°37' W 095°01'0 0.0
2017-Oct-15 17:58N 29°37' W 095°01'0 0.0
2017-Oct-15 17:28N 29°37' W 095°01'0 0.0
2017-Oct-15 16:58N 29°37' W 095°01'0 0.0
2017-Oct-15 16:30N 29°37' W 095°01'1 2.1
2017-Oct-15 16:00N 29°37' W 094°59'3 5.2
2017-Oct-15 15:30N 29°36' W 094°57'1 2.4
2017-Oct-15 15:00N 29°37' W 094°57'5 4.4
2017-Oct-15 13:59N 29°41' W 094°60'0 0.0
2017-Oct-15 13:29N 29°41' W 094°60'0 0.0
2017-Oct-15 12:58N 29°41' W 094°60'0 0.0
2017-Oct-15 12:29N 29°41' W 094°60'0 0.0
2017-Oct-15 11:58N 29°41' W 094°60'0 0.0
2017-Oct-15 11:28N 29°41' W 094°60'0 0.0
2017-Oct-15 10:59N 29°41' W 094°60'0 0.5
2017-Oct-15 10:30N 29°41' W 095°00'0 0.7
2017-Oct-15 10:00N 29°41' W 094°60'2 4.5
2017-Oct-15 09:30N 29°39' W 094°58'3 5.3
2017-Oct-15 08:59N 29°41' W 095°00'0 0.2
2017-Oct-15 08:26N 29°41' W 095°01'0 0.0
2017-Oct-15 07:59N 29°41' W 095°01'1 1.5
2017-Oct-15 07:30N 29°41' W 094°60'2 4.1
2017-Oct-15 07:00N 29°39' W 094°58'2 4.0
2017-Oct-15 06:31N 29°41' W 094°60'0 0.0
2017-Oct-15 06:00N 29°41' W 094°60'0 0.0
2017-Oct-15 05:30N 29°41' W 094°60'0 0.0
2017-Oct-15 05:00N 29°41' W 094°60'0 0.0
2017-Oct-15 03:56N 29°41' W 094°60'0 1.1
2017-Oct-15 03:29N 29°41' W 095°00'1 2.5
2017-Oct-15 03:00N 29°41' W 094°59'2 3.5
2017-Oct-15 02:30N 29°39' W 094°58'4 0.5
2017-Oct-14 18:53N 29°42' W 095°01'2 6.1
2017-Oct-14 18:30N 29°44' W 095°03'0 0.1
2017-Oct-14 17:04N 29°44' W 095°03'0 0.4
2017-Oct-14 16:41N 29°44' W 095°03'1 2.9
2017-Oct-14 16:16N 29°44' W 095°02'2 6.3
2017-Oct-14 16:00N 29°42' W 095°01'0 0.0
2017-Oct-14 13:40N 29°42' W 095°01'1 8.1
2017-Oct-14 13:30N 29°42' W 094°60'1 1.8
2017-Oct-14 13:00N 29°41' W 094°60'0 0.2
2017-Oct-14 12:30N 29°41' W 094°59'4 7.1
2017-Oct-14 11:54N 29°44' W 095°03'0 0.3
2017-Oct-14 11:17N 29°44' W 095°03'2 5.9
2017-Oct-14 10:58N 29°43' W 095°01'1 1.3
2017-Oct-14 10:19N 29°42' W 095°01'2 6.0
2017-Oct-14 09:58N 29°44' W 095°03'0 0.3
2017-Oct-14 08:33N 29°44' W 095°03'2 5.5
2017-Oct-14 08:15N 29°44' W 095°01'1 3.8
2017-Oct-14 08:00N 29°43' W 095°01'0 0.1
2017-Oct-14 04:38N 29°42' W 095°01'1 6.9
2017-Oct-14 04:30N 29°42' W 095°00'1 2.0
2017-Oct-14 04:00N 29°41' W 095°00'0 0.3
2017-Oct-14 03:26N 29°41' W 095°00'1 1.8
2017-Oct-14 03:00N 29°41' W 094°59'1 1.3
2017-Oct-14 02:29N 29°41' W 095°00'0 0.1
2017-Oct-14 02:01N 29°41' W 095°00'0 0.4
2017-Oct-14 01:21N 29°41' W 095°00'1 3.8
2017-Oct-14 00:59N 29°41' W 094°59'0 0.6
2017-Oct-14 00:29N 29°41' W 094°59'0 0.3
2017-Oct-13 23:21N 29°41' W 094°59'0 0.7
2017-Oct-13 23:00N 29°41' W 094°59'4 8.7
2017-Oct-13 22:30N 29°37' W 094°58'3 5.8
2017-Oct-13 22:00N 29°37' W 095°01'1 1.3
2017-Oct-13 21:29N 29°37' W 095°01'1 1.6
2017-Oct-13 20:59N 29°37' W 095°02'0 0.0
2017-Oct-13 20:29N 29°37' W 095°02'0 0.0
2017-Oct-13 19:59N 29°37' W 095°02'0 0.0
2017-Oct-13 19:29N 29°37' W 095°02'0 0.0
2017-Oct-13 18:59N 29°37' W 095°02'0 0.0
2017-Oct-13 18:29N 29°37' W 095°02'0 0.0
2017-Oct-13 17:59N 29°37' W 095°02'0 0.0
2017-Oct-13 17:29N 29°37' W 095°02'0 0.0
2017-Oct-13 16:59N 29°37' W 095°02'0 0.3
2017-Oct-13 16:31N 29°37' W 095°01'0 0.2
2017-Oct-13 15:55N 29°37' W 095°02'0 0.0
2017-Oct-13 15:25N 29°37' W 095°02'0 0.0
2017-Oct-13 14:58N 29°37' W 095°02'0 0.0
2017-Oct-13 14:28N 29°37' W 095°02'0 0.0
2017-Oct-13 13:58N 29°37' W 095°02'0 0.0
2017-Oct-13 13:22N 29°37' W 095°02'0 0.0
2017-Oct-13 13:01N 29°37' W 095°02'1 2.3
2017-Oct-13 12:31N 29°37' W 095°00'0 0.1
2017-Oct-13 12:00N 29°37' W 095°00'0 0.1
2017-Oct-13 11:30N 29°37' W 095°00'1 2.1
2017-Oct-13 11:00N 29°37' W 095°01'1 3.0
2017-Oct-13 10:30N 29°37' W 094°60'1 1.4
2017-Oct-13 10:00N 29°37' W 095°00'1 1.0
2017-Oct-13 09:29N 29°37' W 095°01'0 0.2
2017-Oct-13 09:00N 29°37' W 095°01'3 5.7
2017-Oct-13 08:30N 29°37' W 094°58'3 5.0
2017-Oct-13 08:00N 29°35' W 094°56'4 8.5
2017-Oct-13 07:30N 29°37' W 095°00'0 0.5
2017-Oct-13 07:00N 29°37' W 095°01'0 0.0
2017-Oct-13 06:30N 29°37' W 095°01'0 0.0
2017-Oct-13 06:00N 29°37' W 095°01'0 0.0
2017-Oct-13 05:30N 29°37' W 095°01'0 0.0
2017-Oct-13 05:00N 29°37' W 095°01'0 0.0
2017-Oct-13 04:30N 29°37' W 095°01'0 0.0
2017-Oct-13 04:00N 29°37' W 095°01'0 0.0
2017-Oct-13 03:30N 29°37' W 095°01'0 0.0
2017-Oct-13 03:00N 29°37' W 095°01'0 0.0
2017-Oct-13 02:30N 29°37' W 095°01'1 1.7
2017-Oct-13 02:00N 29°37' W 095°01'0 0.2
2017-Oct-13 01:30N 29°37' W 095°01'1 2.3
2017-Oct-13 01:01N 29°37' W 095°00'1 2.8
2017-Oct-13 00:31N 29°37' W 094°58'2 3.5
2017-Oct-13 00:00N 29°37' W 095°01'2 3.6
2017-Oct-12 23:30N 29°37' W 094°58'4 8.6
2017-Oct-12 23:00N 29°41' W 094°59'2 0.6
2017-Oct-12 19:30N 29°42' W 095°01'1 1.3
2017-Oct-12 18:24N 29°44' W 095°01'1 2.6
2017-Oct-12 18:00N 29°43' W 095°01'0 0.1
2017-Oct-12 13:39N 29°42' W 095°01'2 8.8
2017-Oct-12 13:27N 29°42' W 094°59'510.2
2017-Oct-12 12:58N 29°37' W 094°57'2 3.5
2017-Oct-12 12:31N 29°37' W 094°59'1 2.0
2017-Oct-12 12:01N 29°37' W 095°00'0 0.0
2017-Oct-12 11:30N 29°37' W 095°00'0 0.0
2017-Oct-12 11:00N 29°37' W 095°00'0 0.7
2017-Oct-12 10:30N 29°37' W 095°00'2 4.4
2017-Oct-12 10:00N 29°37' W 094°57'5 9.5
2017-Oct-12 09:30N 29°42' W 094°60'3 2.2
2017-Oct-12 08:21N 29°44' W 095°01'1 3.3
2017-Oct-12 07:59N 29°42' W 095°01'0 0.2
2017-Oct-12 07:00N 29°42' W 095°01'0 0.0
2017-Oct-12 06:30N 29°42' W 095°01'0 0.0
2017-Oct-12 06:00N 29°42' W 095°01'0 0.0
2017-Oct-12 03:38N 29°42' W 095°01'1 6.7
2017-Oct-12 03:29N 29°43' W 095°01'0 0.7
2017-Oct-12 02:49N 29°44' W 095°01'1 4.5
2017-Oct-12 02:30N 29°42' W 095°01'0 0.0
2017-Oct-12 01:17N 29°42' W 095°01'1 4.7
2017-Oct-12 00:59N 29°44' W 095°01'4 8.0
2017-Oct-12 00:30N 29°46' W 095°05'3 0.8
2017-Oct-11 21:18N 29°44' W 095°08'2 0.9
2017-Oct-11 18:42N 29°45' W 095°06'3 0.1
2017-Oct-10 17:44N 29°44' W 095°03'2 7.2
2017-Oct-10 17:29N 29°43' W 095°01'7 8.6
2017-Oct-10 16:43N 29°37' W 094°58'2 9.7
2017-Oct-10 16:30N 29°37' W 094°60'1 2.9
2017-Oct-10 16:00N 29°37' W 095°01'0 0.7
2017-Oct-10 15:28N 29°37' W 095°01'0 0.0
2017-Oct-10 14:58N 29°37' W 095°01'0 0.0
2017-Oct-10 13:58N 29°37' W 095°01'0 0.0
2017-Oct-10 13:28N 29°37' W 095°01'0 0.0
2017-Oct-10 12:58N 29°37' W 095°01'0 0.0
2017-Oct-10 12:28N 29°37' W 095°01'0 0.0
2017-Oct-10 11:58N 29°37' W 095°01'0 0.0
2017-Oct-10 11:28N 29°37' W 095°01'0 0.6
2017-Oct-10 11:00N 29°37' W 095°01'0 0.9
2017-Oct-10 10:30N 29°37' W 095°00'1 1.2
2017-Oct-10 10:00N 29°37' W 095°01'1 1.0
2017-Oct-10 09:28N 29°37' W 095°00'0 0.0
2017-Oct-10 08:58N 29°37' W 095°00'0 0.0
2017-Oct-10 08:28N 29°37' W 095°00'0 0.0
2017-Oct-10 07:58N 29°37' W 095°00'0 0.6
2017-Oct-10 07:30N 29°37' W 095°00'0 0.2
2017-Oct-10 07:00N 29°37' W 095°00'1 1.6
2017-Oct-10 06:30N 29°37' W 095°01'0 0.0
2017-Oct-10 05:59N 29°37' W 095°01'0 0.0
2017-Oct-10 05:29N 29°37' W 095°01'0 0.0
2017-Oct-10 04:59N 29°37' W 095°01'0 0.0
2017-Oct-10 04:29N 29°37' W 095°01'0 0.0
2017-Oct-10 03:59N 29°37' W 095°01'0 0.0
2017-Oct-10 03:29N 29°37' W 095°01'0 0.0
2017-Oct-10 02:59N 29°37' W 095°01'0 0.0
2017-Oct-10 02:29N 29°37' W 095°01'0 0.0
2017-Oct-10 01:59N 29°37' W 095°01'0 0.0
2017-Oct-10 01:29N 29°37' W 095°01'0 0.0
2017-Oct-10 00:59N 29°37' W 095°01'0 0.0
2017-Oct-10 00:26N 29°37' W 095°01'0 0.0
2017-Oct-09 23:59N 29°37' W 095°01'0 0.0
2017-Oct-09 23:29N 29°37' W 095°01'0 0.0
2017-Oct-09 22:59N 29°37' W 095°01'0 1.0
2017-Oct-09 22:30N 29°37' W 095°01'1 1.1
2017-Oct-09 22:00N 29°37' W 095°01'3 5.1
2017-Oct-09 21:31N 29°37' W 094°58'1 2.7
2017-Oct-09 20:59N 29°36' W 094°57'3 6.3
2017-Oct-09 20:28N 29°37' W 095°01'0 0.0
2017-Oct-09 19:58N 29°37' W 095°01'0 0.0
2017-Oct-09 19:28N 29°37' W 095°01'0 0.0
2017-Oct-09 18:58N 29°37' W 095°01'0 0.0
2017-Oct-09 18:28N 29°37' W 095°01'0 0.0
2017-Oct-09 17:58N 29°37' W 095°01'0 0.0
2017-Oct-09 17:30N 29°37' W 095°01'3 5.4
2017-Oct-09 17:00N 29°38' W 094°58'4 7.0
2017-Oct-09 16:28N 29°41' W 094°60'0 1.0
2017-Oct-09 16:01N 29°41' W 094°59'3 5.8
2017-Oct-09 15:28N 29°38' W 094°58'2 4.4
2017-Oct-09 15:00N 29°37' W 094°60'0 0.9
2017-Oct-09 14:30N 29°37' W 095°00'0 0.0
2017-Oct-09 13:59N 29°37' W 095°00'0 0.0
2017-Oct-09 13:26N 29°37' W 095°00'0 0.0
2017-Oct-09 12:59N 29°37' W 095°00'0 0.0
2017-Oct-09 12:08N 29°37' W 095°00'0 0.5
2017-Oct-09 12:00N 29°37' W 095°00'0 0.5
2017-Oct-09 11:30N 29°37' W 095°01'0 0.4
2017-Oct-09 11:01N 29°37' W 095°01'1 1.4
2017-Oct-09 10:29N 29°37' W 095°02'0 0.0
2017-Oct-09 09:59N 29°37' W 095°02'0 0.0
2017-Oct-09 09:29N 29°37' W 095°02'0 0.0
2017-Oct-09 08:59N 29°37' W 095°02'0 0.9
2017-Oct-09 08:29N 29°37' W 095°01'0 0.1
2017-Oct-09 08:00N 29°37' W 095°01'1 2.0
2017-Oct-09 07:30N 29°37' W 095°00'0 0.0
2017-Oct-09 07:00N 29°37' W 095°00'2 3.2
2017-Oct-09 06:30N 29°37' W 094°58'4 7.7
2017-Oct-09 06:00N 29°41' W 094°59'1 1.9
2017-Oct-09 05:29N 29°41' W 094°60'0 0.2
2017-Oct-09 04:58N 29°41' W 094°60'0 0.0
2017-Oct-09 04:28N 29°41' W 094°60'0 0.0
2017-Oct-09 03:58N 29°41' W 094°60'0 0.0
2017-Oct-09 03:28N 29°41' W 094°60'0 0.0
2017-Oct-09 02:58N 29°41' W 094°60'0 0.0
2017-Oct-09 02:28N 29°41' W 094°60'0 0.0
2017-Oct-09 01:58N 29°41' W 094°60'1 1.3
2017-Oct-09 01:30N 29°41' W 094°59'0 0.7
2017-Oct-09 00:58N 29°41' W 094°60'0 0.3
2017-Oct-09 00:14N 29°41' W 094°60'0 0.0
2017-Oct-08 23:51N 29°41' W 094°60'0 0.2
2017-Oct-08 23:28N 29°41' W 094°60'0 0.0
2017-Oct-08 22:58N 29°41' W 094°60'0 0.0
2017-Oct-08 22:28N 29°41' W 094°60'0 0.0
2017-Oct-08 21:58N 29°41' W 094°60'0 0.4
2017-Oct-08 21:30N 29°41' W 094°60'0 0.7
2017-Oct-08 21:00N 29°41' W 095°00'0 0.9
2017-Oct-08 20:30N 29°41' W 094°60'2 4.7
2017-Oct-08 19:59N 29°39' W 094°58'2 3.1
2017-Oct-08 19:25N 29°37' W 094°58'3 6.6
2017-Oct-08 19:00N 29°37' W 095°01'0 0.0
2017-Oct-08 17:58N 29°37' W 095°01'0 0.0
2017-Oct-08 17:25N 29°37' W 095°01'0 0.0
2017-Oct-08 16:58N 29°37' W 095°01'0 0.0
2017-Oct-08 16:19N 29°37' W 095°01'0 0.0
2017-Oct-08 15:55N 29°37' W 095°01'0 0.0
2017-Oct-08 15:28N 29°37' W 095°01'  
Track history (hours):
 
Tides and Currents Weather Stations Pressure Air Temp Water Temp Dewpoint Dewpoint Depression Visibility Wind Speed Wind Dir Waves Ship Positions

Wesley A

Owner: G & H Towing Company, Galveston, TX. More information available from US FCC via Universal Licensing System and Coast Guard Vessel Documentation Center.

Last reported at 2017-Oct-18 15:12 UTC. Time now 2017-Oct-18 20:28 UTC.
Position N 29°44' W 095°02'.

Length 30 m; draft 6.4 m.

Type: Tug. MMSI: 367325130.

Date/timePositionNaut miles runAvg speedWind from/ knotsBaromVisibWave heightAir tempDewpointWater temp
2017-Oct-18 15:12N 29°44' W 095°02'1 5.1
2017-Oct-18 15:00N 29°43' W 095°01'1 0.3
2017-Oct-18 12:59N 29°42' W 095°01'0 0.0
2017-Oct-18 12:26N 29°42' W 095°01'2 4.5
2017-Oct-18 12:00N 29°41' W 094°59'0 0.9
2017-Oct-18 11:30N 29°41' W 094°59'1 1.3
2017-Oct-18 10:52N 29°41' W 095°00'1 1.7
2017-Oct-18 10:30N 29°41' W 094°60'0 0.0
2017-Oct-18 09:54N 29°41' W 094°60'0 0.0
2017-Oct-18 09:30N 29°41' W 094°60'0 0.0
2017-Oct-18 09:00N 29°41' W 094°60'0 0.0
2017-Oct-18 08:30N 29°41' W 094°60'0 0.0
2017-Oct-18 08:00N 29°41' W 094°60'0 0.0
2017-Oct-18 07:24N 29°41' W 094°60'0 0.0
2017-Oct-18 07:00N 29°41' W 094°60'0 0.0
2017-Oct-18 06:30N 29°41' W 094°60'0 0.2
2017-Oct-18 06:00N 29°41' W 094°60'0 0.2
2017-Oct-18 05:29N 29°41' W 094°60'0 0.0
2017-Oct-18 04:59N 29°41' W 094°60'0 0.0
2017-Oct-18 04:30N 29°41' W 094°60'0 0.0
2017-Oct-18 03:59N 29°41' W 094°60'0 0.0
2017-Oct-18 03:26N 29°41' W 094°60'0 0.0
2017-Oct-18 02:59N 29°41' W 094°60'0 0.0
2017-Oct-18 02:29N 29°41' W 094°60'0 0.0
2017-Oct-18 01:59N 29°41' W 094°60'0 0.0
2017-Oct-18 01:29N 29°41' W 094°60'0 0.0
2017-Oct-18 00:59N 29°41' W 094°60'0 0.1
2017-Oct-18 00:30N 29°41' W 094°60'0 0.2
2017-Oct-18 00:00N 29°41' W 094°60'0 0.1
2017-Oct-17 23:28N 29°41' W 094°60'0 0.0
2017-Oct-17 23:00N 29°41' W 094°60'0 0.0
2017-Oct-17 22:30N 29°41' W 094°60'0 0.4
2017-Oct-17 22:00N 29°41' W 095°00'0 0.5
2017-Oct-17 21:11N 29°41' W 095°01'1 0.2
2017-Oct-17 17:01N 29°41' W 094°60'0 0.0
2017-Oct-17 16:34N 29°41' W 094°60'0 0.0
2017-Oct-17 16:22N 29°41' W 094°60'0 0.0
2017-Oct-17 15:55N 29°41' W 094°60'0 0.0
2017-Oct-17 15:04N 29°41' W 094°60'0 0.0
2017-Oct-17 14:55N 29°41' W 094°60'0 0.0
2017-Oct-17 14:28N 29°41' W 094°60'0 0.0
2017-Oct-17 13:22N 29°41' W 094°60'0 0.0
2017-Oct-17 12:04N 29°41' W 094°60'0 0.0
2017-Oct-17 12:00N 29°41' W 094°60'0 0.8
2017-Oct-17 11:27N 29°41' W 095°00'1 2.9
2017-Oct-17 10:58N 29°41' W 094°59'3 7.1
2017-Oct-17 10:29N 29°37' W 094°57'4 7.6
2017-Oct-17 10:01N 29°37' W 095°02'0 0.0
2017-Oct-17 09:20N 29°37' W 095°02'0 0.0
2017-Oct-17 08:59N 29°37' W 095°02'0 0.0
2017-Oct-17 08:23N 29°37' W 095°02'0 0.0
2017-Oct-17 07:59N 29°37' W 095°02'0 0.0
2017-Oct-17 07:23N 29°37' W 095°02'0 0.0
2017-Oct-17 06:53N 29°37' W 095°02'0 0.0
2017-Oct-17 06:23N 29°37' W 095°02'0 0.0
2017-Oct-17 05:59N 29°37' W 095°02'0 0.0
2017-Oct-17 05:29N 29°37' W 095°02'0 0.0
2017-Oct-17 04:53N 29°37' W 095°02'0 0.0
2017-Oct-17 04:26N 29°37' W 095°02'0 0.2
2017-Oct-17 04:00N 29°37' W 095°02'0 0.0
2017-Oct-17 03:30N 29°37' W 095°02'1 2.2
2017-Oct-17 03:00N 29°37' W 095°00'2 4.9
2017-Oct-17 02:30N 29°38' W 094°58'3 6.2
2017-Oct-17 02:01N 29°37' W 095°01'0 0.1
2017-Oct-17 01:28N 29°37' W 095°01'0 0.0
2017-Oct-17 00:58N 29°37' W 095°01'0 0.0
2017-Oct-17 00:28N 29°37' W 095°01'0 0.0
2017-Oct-16 23:58N 29°37' W 095°01'0 0.0
2017-Oct-16 23:28N 29°37' W 095°01'0 0.0
2017-Oct-16 22:58N 29°37' W 095°01'0 0.0
2017-Oct-16 22:28N 29°37' W 095°01'0 0.0
2017-Oct-16 21:58N 29°37' W 095°01'0 0.0
2017-Oct-16 21:28N 29°37' W 095°01'0 0.0
2017-Oct-16 20:58N 29°37' W 095°01'0 0.0
2017-Oct-16 20:28N 29°37' W 095°01'0 0.0
2017-Oct-16 19:58N 29°37' W 095°01'0 0.0
2017-Oct-16 19:28N 29°37' W 095°01'0 0.0
2017-Oct-16 18:58N 29°37' W 095°01'0 0.0
2017-Oct-16 18:28N 29°37' W 095°01'0 0.0
2017-Oct-16 17:58N 29°37' W 095°01'0 0.0
2017-Oct-16 17:28N 29°37' W 095°01'0 0.0
2017-Oct-16 16:58N 29°37' W 095°01'0 0.0
2017-Oct-16 16:28N 29°37' W 095°01'0 0.0
2017-Oct-16 15:58N 29°37' W 095°01'0 0.0
2017-Oct-16 15:28N 29°37' W 095°01'0 0.0
2017-Oct-16 14:58N 29°37' W 095°01'0 0.0
2017-Oct-16 14:28N 29°37' W 095°01'0 0.0
2017-Oct-16 13:28N 29°37' W 095°01'0 0.0
2017-Oct-16 12:58N 29°37' W 095°01'0 0.0
2017-Oct-16 12:28N 29°37' W 095°01'0 0.0
2017-Oct-16 11:58N 29°37' W 095°01'0 0.0
2017-Oct-16 11:28N 29°37' W 095°01'0 0.0
2017-Oct-16 10:58N 29°37' W 095°01'0 0.0
2017-Oct-16 10:28N 29°37' W 095°01'0 0.0
2017-Oct-16 09:58N 29°37' W 095°01'0 0.0
2017-Oct-16 09:28N 29°37' W 095°01'0 0.0
2017-Oct-16 08:55N 29°37' W 095°01'0 0.0
2017-Oct-16 08:28N 29°37' W 095°01'0 0.0
2017-Oct-16 07:58N 29°37' W 095°01'0 0.0
2017-Oct-16 07:28N 29°37' W 095°01'0 0.0
2017-Oct-16 06:58N 29°37' W 095°01'0 0.0
2017-Oct-16 06:28N 29°37' W 095°01'0 0.0
2017-Oct-16 05:58N 29°37' W 095°01'0 0.0
2017-Oct-16 05:28N 29°37' W 095°01'0 0.0
2017-Oct-16 04:58N 29°37' W 095°01'0 0.0
2017-Oct-16 04:28N 29°37' W 095°01'0 0.0
2017-Oct-16 03:58N 29°37' W 095°01'0 0.0
2017-Oct-16 03:28N 29°37' W 095°01'0 0.0
2017-Oct-16 02:58N 29°37' W 095°01'0 0.0
2017-Oct-16 02:28N 29°37' W 095°01'0 0.0
2017-Oct-16 01:55N 29°37' W 095°01'0 0.0
2017-Oct-16 01:28N 29°37' W 095°01'0 0.0
2017-Oct-16 00:58N 29°37' W 095°01'0 0.0
2017-Oct-16 00:28N 29°37' W 095°01'0 0.0
2017-Oct-15 23:58N 29°37' W 095°01'0 0.0
2017-Oct-15 23:28N 29°37' W 095°01'0 0.0
2017-Oct-15 22:58N 29°37' W 095°01'0 0.0
2017-Oct-15 22:28N 29°37' W 095°01'0 0.0
2017-Oct-15 21:58N 29°37' W 095°01'0 0.0
2017-Oct-15 21:28N 29°37' W 095°01'0 0.0
2017-Oct-15 20:58N 29°37' W 095°01'0 0.0
2017-Oct-15 20:28N 29°37' W 095°01'0 0.0
2017-Oct-15 19:58N 29°37' W 095°01'0 0.0
2017-Oct-15 19:28N 29°37' W 095°01'0 0.0
2017-Oct-15 18:59N 29°37' W 095°01'0 0.8
2017-Oct-15 18:25N 29°37' W 095°01'0 0.0
2017-Oct-15 17:58N 29°37' W 095°01'0 0.0
2017-Oct-15 17:28N 29°37' W 095°01'0 0.0
2017-Oct-15 16:58N 29°37' W 095°01'0 0.0
2017-Oct-15 16:30N 29°37' W 095°01'1 2.1
2017-Oct-15 16:00N 29°37' W 094°59'3 5.2
2017-Oct-15 15:30N 29°36' W 094°57'1 2.4
2017-Oct-15 15:00N 29°37' W 094°57'5 4.4
2017-Oct-15 13:59N 29°41' W 094°60'0 0.0
2017-Oct-15 13:29N 29°41' W 094°60'0 0.0
2017-Oct-15 12:58N 29°41' W 094°60'0 0.0
2017-Oct-15 12:29N 29°41' W 094°60'0 0.0
2017-Oct-15 11:58N 29°41' W 094°60'0 0.0
2017-Oct-15 11:28N 29°41' W 094°60'0 0.0
2017-Oct-15 10:59N 29°41' W 094°60'0 0.5
2017-Oct-15 10:30N 29°41' W 095°00'0 0.7
2017-Oct-15 10:00N 29°41' W 094°60'2 4.5
2017-Oct-15 09:30N 29°39' W 094°58'3 5.3
2017-Oct-15 08:59N 29°41' W 095°00'0 0.2
2017-Oct-15 08:26N 29°41' W 095°01'0 0.0
2017-Oct-15 07:59N 29°41' W 095°01'1 1.5
2017-Oct-15 07:30N 29°41' W 094°60'2 4.1
2017-Oct-15 07:00N 29°39' W 094°58'2 4.0
2017-Oct-15 06:31N 29°41' W 094°60'0 0.0
2017-Oct-15 06:00N 29°41' W 094°60'0 0.0
2017-Oct-15 05:30N 29°41' W 094°60'0 0.0
2017-Oct-15 05:00N 29°41' W 094°60'0 0.0
2017-Oct-15 03:56N 29°41' W 094°60'0 1.1
2017-Oct-15 03:29N 29°41' W 095°00'1 2.5
2017-Oct-15 03:00N 29°41' W 094°59'2 3.5
2017-Oct-15 02:30N 29°39' W 094°58'4 0.5
2017-Oct-14 18:53N 29°42' W 095°01'2 6.1
2017-Oct-14 18:30N 29°44' W 095°03'0 0.1
2017-Oct-14 17:04N 29°44' W 095°03'0 0.4
2017-Oct-14 16:41N 29°44' W 095°03'1 2.9
2017-Oct-14 16:16N 29°44' W 095°02'2 6.3
2017-Oct-14 16:00N 29°42' W 095°01'0 0.0
2017-Oct-14 13:40N 29°42' W 095°01'1 8.1
2017-Oct-14 13:30N 29°42' W 094°60'1 1.8
2017-Oct-14 13:00N 29°41' W 094°60'0 0.2
2017-Oct-14 12:30N 29°41' W 094°59'4 7.1
2017-Oct-14 11:54N 29°44' W 095°03'0 0.3
2017-Oct-14 11:17N 29°44' W 095°03'2 5.9
2017-Oct-14 10:58N 29°43' W 095°01'1 1.3
2017-Oct-14 10:19N 29°42' W 095°01'2 6.0
2017-Oct-14 09:58N 29°44' W 095°03'0 0.3
2017-Oct-14 08:33N 29°44' W 095°03'2 5.5
2017-Oct-14 08:15N 29°44' W 095°01'1 3.8
2017-Oct-14 08:00N 29°43' W 095°01'0 0.1
2017-Oct-14 04:38N 29°42' W 095°01'1 6.9
2017-Oct-14 04:30N 29°42' W 095°00'1 2.0
2017-Oct-14 04:00N 29°41' W 095°00'0 0.3
2017-Oct-14 03:26N 29°41' W 095°00'1 1.8
2017-Oct-14 03:00N 29°41' W 094°59'1 1.3
2017-Oct-14 02:29N 29°41' W 095°00'0 0.1
2017-Oct-14 02:01N 29°41' W 095°00'0 0.4
2017-Oct-14 01:21N 29°41' W 095°00'1 3.8
2017-Oct-14 00:59N 29°41' W 094°59'0 0.6
2017-Oct-14 00:29N 29°41' W 094°59'0 0.3
2017-Oct-13 23:21N 29°41' W 094°59'0 0.7
2017-Oct-13 23:00N 29°41' W 094°59'4 8.7
2017-Oct-13 22:30N 29°37' W 094°58'3 5.8
2017-Oct-13 22:00N 29°37' W 095°01'1 1.3
2017-Oct-13 21:29N 29°37' W 095°01'1 1.6
2017-Oct-13 20:59N 29°37' W 095°02'0 0.0
2017-Oct-13 20:29N 29°37' W 095°02'0 0.0
2017-Oct-13 19:59N 29°37' W 095°02'0 0.0
2017-Oct-13 19:29N 29°37' W 095°02'0 0.0
2017-Oct-13 18:59N 29°37' W 095°02'0 0.0
2017-Oct-13 18:29N 29°37' W 095°02'0 0.0
2017-Oct-13 17:59N 29°37' W 095°02'0 0.0
2017-Oct-13 17:29N 29°37' W 095°02'0 0.0
2017-Oct-13 16:59N 29°37' W 095°02'0 0.3
2017-Oct-13 16:31N 29°37' W 095°01'0 0.2
2017-Oct-13 15:55N 29°37' W 095°02'0 0.0
2017-Oct-13 15:25N 29°37' W 095°02'0 0.0
2017-Oct-13 14:58N 29°37' W 095°02'0 0.0
2017-Oct-13 14:28N 29°37' W 095°02'0 0.0
2017-Oct-13 13:58N 29°37' W 095°02'0 0.0
2017-Oct-13 13:22N 29°37' W 095°02'0 0.0
2017-Oct-13 13:01N 29°37' W 095°02'1 2.3
2017-Oct-13 12:31N 29°37' W 095°00'0 0.1
2017-Oct-13 12:00N 29°37' W 095°00'0 0.1
2017-Oct-13 11:30N 29°37' W 095°00'1 2.1
2017-Oct-13 11:00N 29°37' W 095°01'1 3.0
2017-Oct-13 10:30N 29°37' W 094°60'1 1.4
2017-Oct-13 10:00N 29°37' W 095°00'1 1.0
2017-Oct-13 09:29N 29°37' W 095°01'0 0.2
2017-Oct-13 09:00N 29°37' W 095°01'3 5.7
2017-Oct-13 08:30N 29°37' W 094°58'3 5.0
2017-Oct-13 08:00N 29°35' W 094°56'4 8.5
2017-Oct-13 07:30N 29°37' W 095°00'0 0.5
2017-Oct-13 07:00N 29°37' W 095°01'0 0.0
2017-Oct-13 06:30N 29°37' W 095°01'0 0.0
2017-Oct-13 06:00N 29°37' W 095°01'0 0.0
2017-Oct-13 05:30N 29°37' W 095°01'0 0.0
2017-Oct-13 05:00N 29°37' W 095°01'0 0.0
2017-Oct-13 04:30N 29°37' W 095°01'0 0.0
2017-Oct-13 04:00N 29°37' W 095°01'0 0.0
2017-Oct-13 03:30N 29°37' W 095°01'0 0.0
2017-Oct-13 03:00N 29°37' W 095°01'0 0.0
2017-Oct-13 02:30N 29°37' W 095°01'1 1.7
2017-Oct-13 02:00N 29°37' W 095°01'0 0.2
2017-Oct-13 01:30N 29°37' W 095°01'1 2.3
2017-Oct-13 01:01N 29°37' W 095°00'1 2.8
2017-Oct-13 00:31N 29°37' W 094°58'2 3.5
2017-Oct-13 00:00N 29°37' W 095°01'2 3.6
2017-Oct-12 23:30N 29°37' W 094°58'4 8.6
2017-Oct-12 23:00N 29°41' W 094°59'2 0.6
2017-Oct-12 19:30N 29°42' W 095°01'1 1.3
2017-Oct-12 18:24N 29°44' W 095°01'1 2.6
2017-Oct-12 18:00N 29°43' W 095°01'0 0.1
2017-Oct-12 13:39N 29°42' W 095°01'2 8.8
2017-Oct-12 13:27N 29°42' W 094°59'510.2
2017-Oct-12 12:58N 29°37' W 094°57'2 3.5
2017-Oct-12 12:31N 29°37' W 094°59'1 2.0
2017-Oct-12 12:01N 29°37' W 095°00'0 0.0
2017-Oct-12 11:30N 29°37' W 095°00'0 0.0
2017-Oct-12 11:00N 29°37' W 095°00'0 0.7
2017-Oct-12 10:30N 29°37' W 095°00'2 4.4
2017-Oct-12 10:00N 29°37' W 094°57'5 9.5
2017-Oct-12 09:30N 29°42' W 094°60'3 2.2
2017-Oct-12 08:21N 29°44' W 095°01'1 3.3
2017-Oct-12 07:59N 29°42' W 095°01'0 0.2
2017-Oct-12 07:00N 29°42' W 095°01'0 0.0
2017-Oct-12 06:30N 29°42' W 095°01'0 0.0
2017-Oct-12 06:00N 29°42' W 095°01'0 0.0
2017-Oct-12 03:38N 29°42' W 095°01'1 6.7
2017-Oct-12 03:29N 29°43' W 095°01'0 0.7
2017-Oct-12 02:49N 29°44' W 095°01'1 4.5
2017-Oct-12 02:30N 29°42' W 095°01'0 0.0
2017-Oct-12 01:17N 29°42' W 095°01'1 4.7
2017-Oct-12 00:59N 29°44' W 095°01'4 8.0
2017-Oct-12 00:30N 29°46' W 095°05'3 0.8
2017-Oct-11 21:18N 29°44' W 095°08'2 0.9
2017-Oct-11 18:42N 29°45' W 095°06'3 0.1
2017-Oct-10 17:44N 29°44' W 095°03'2 7.2
2017-Oct-10 17:29N 29°43' W 095°01'7 8.6
2017-Oct-10 16:43N 29°37' W 094°58'2 9.7
2017-Oct-10 16:30N 29°37' W 094°60'1 2.9
2017-Oct-10 16:00N 29°37' W 095°01'0 0.7
2017-Oct-10 15:28N 29°37' W 095°01'0 0.0
2017-Oct-10 14:58N 29°37' W 095°01'0 0.0
2017-Oct-10 13:58N 29°37' W 095°01'0 0.0
2017-Oct-10 13:28N 29°37' W 095°01'0 0.0
2017-Oct-10 12:58N 29°37' W 095°01'0 0.0
2017-Oct-10 12:28N 29°37' W 095°01'0 0.0
2017-Oct-10 11:58N 29°37' W 095°01'0 0.0
2017-Oct-10 11:28N 29°37' W 095°01'0 0.6
2017-Oct-10 11:00N 29°37' W 095°01'0 0.9
2017-Oct-10 10:30N 29°37' W 095°00'1 1.2
2017-Oct-10 10:00N 29°37' W 095°01'1 1.0
2017-Oct-10 09:28N 29°37' W 095°00'0 0.0
2017-Oct-10 08:58N 29°37' W 095°00'0 0.0
2017-Oct-10 08:28N 29°37' W 095°00'0 0.0
2017-Oct-10 07:58N 29°37' W 095°00'0 0.6
2017-Oct-10 07:30N 29°37' W 095°00'0 0.2
2017-Oct-10 07:00N 29°37' W 095°00'1 1.6
2017-Oct-10 06:30N 29°37' W 095°01'0 0.0
2017-Oct-10 05:59N 29°37' W 095°01'0 0.0
2017-Oct-10 05:29N 29°37' W 095°01'0 0.0
2017-Oct-10 04:59N 29°37' W 095°01'0 0.0
2017-Oct-10 04:29N 29°37' W 095°01'0 0.0
2017-Oct-10 03:59N 29°37' W 095°01'0 0.0
2017-Oct-10 03:29N 29°37' W 095°01'0 0.0
2017-Oct-10 02:59N 29°37' W 095°01'0 0.0
2017-Oct-10 02:29N 29°37' W 095°01'0 0.0
2017-Oct-10 01:59N 29°37' W 095°01'0 0.0
2017-Oct-10 01:29N 29°37' W 095°01'0 0.0
2017-Oct-10 00:59N 29°37' W 095°01'0 0.0
2017-Oct-10 00:26N 29°37' W 095°01'0 0.0
2017-Oct-09 23:59N 29°37' W 095°01'0 0.0
2017-Oct-09 23:29N 29°37' W 095°01'0 0.0
2017-Oct-09 22:59N 29°37' W 095°01'0 1.0
2017-Oct-09 22:30N 29°37' W 095°01'1 1.1
2017-Oct-09 22:00N 29°37' W 095°01'3 5.1
2017-Oct-09 21:31N 29°37' W 094°58'1 2.7
2017-Oct-09 20:59N 29°36' W 094°57'3 6.3
2017-Oct-09 20:28N 29°37' W 095°01'0 0.0
2017-Oct-09 19:58N 29°37' W 095°01'0 0.0
2017-Oct-09 19:28N 29°37' W 095°01'0 0.0
2017-Oct-09 18:58N 29°37' W 095°01'0 0.0
2017-Oct-09 18:28N 29°37' W 095°01'0 0.0
2017-Oct-09 17:58N 29°37' W 095°01'0 0.0
2017-Oct-09 17:30N 29°37' W 095°01'3 5.4
2017-Oct-09 17:00N 29°38' W 094°58'4 7.0
2017-Oct-09 16:28N 29°41' W 094°60'0 1.0
2017-Oct-09 16:01N 29°41' W 094°59'3 5.8
2017-Oct-09 15:28N 29°38' W 094°58'2 4.4
2017-Oct-09 15:00N 29°37' W 094°60'0 0.9
2017-Oct-09 14:30N 29°37' W 095°00'0 0.0
2017-Oct-09 13:59N 29°37' W 095°00'0 0.0
2017-Oct-09 13:26N 29°37' W 095°00'0 0.0
2017-Oct-09 12:59N 29°37' W 095°00'0 0.0
2017-Oct-09 12:08N 29°37' W 095°00'0 0.5
2017-Oct-09 12:00N 29°37' W 095°00'0 0.5
2017-Oct-09 11:30N 29°37' W 095°01'0 0.4
2017-Oct-09 11:01N 29°37' W 095°01'1 1.4
2017-Oct-09 10:29N 29°37' W 095°02'0 0.0
2017-Oct-09 09:59N 29°37' W 095°02'0 0.0
2017-Oct-09 09:29N 29°37' W 095°02'0 0.0
2017-Oct-09 08:59N 29°37' W 095°02'0 0.9
2017-Oct-09 08:29N 29°37' W 095°01'0 0.1
2017-Oct-09 08:00N 29°37' W 095°01'1 2.0
2017-Oct-09 07:30N 29°37' W 095°00'0 0.0
2017-Oct-09 07:00N 29°37' W 095°00'2 3.2
2017-Oct-09 06:30N 29°37' W 094°58'4 7.7
2017-Oct-09 06:00N 29°41' W 094°59'1 1.9
2017-Oct-09 05:29N 29°41' W 094°60'0 0.2
2017-Oct-09 04:58N 29°41' W 094°60'0 0.0
2017-Oct-09 04:28N 29°41' W 094°60'0 0.0
2017-Oct-09 03:58N 29°41' W 094°60'0 0.0
2017-Oct-09 03:28N 29°41' W 094°60'0 0.0
2017-Oct-09 02:58N 29°41' W 094°60'0 0.0
2017-Oct-09 02:28N 29°41' W 094°60'0 0.0
2017-Oct-09 01:58N 29°41' W 094°60'1 1.3
2017-Oct-09 01:30N 29°41' W 094°59'0 0.7
2017-Oct-09 00:58N 29°41' W 094°60'0 0.3
2017-Oct-09 00:14N 29°41' W 094°60'0 0.0
2017-Oct-08 23:51N 29°41' W 094°60'0 0.2
2017-Oct-08 23:28N 29°41' W 094°60'0 0.0
2017-Oct-08 22:58N 29°41' W 094°60'0 0.0
2017-Oct-08 22:28N 29°41' W 094°60'0 0.0
2017-Oct-08 21:58N 29°41' W 094°60'0 0.4
2017-Oct-08 21:30N 29°41' W 094°60'0 0.7
2017-Oct-08 21:00N 29°41' W 095°00'0 0.9
2017-Oct-08 20:30N 29°41' W 094°60'2 4.7
2017-Oct-08 19:59N 29°39' W 094°58'2 3.1
2017-Oct-08 19:25N 29°37' W 094°58'3 6.6
2017-Oct-08 19:00N 29°37' W 095°01'0 0.0
2017-Oct-08 17:58N 29°37' W 095°01'0 0.0
2017-Oct-08 17:25N 29°37' W 095°01'0 0.0
2017-Oct-08 16:58N 29°37' W 095°01'0 0.0
2017-Oct-08 16:19N 29°37' W 095°01'0 0.0
2017-Oct-08 15:55N 29°37' W 095°01'0 0.0
2017-Oct-08 15:28N 29°37' W 095°01'  

Dump ship's entire track history